createdAt,value
2019-03-23T00:01:59.695Z,8.50
2019-03-23T00:04:28.397Z,8.60
2019-03-23T00:06:57.186Z,8.50
2019-03-23T00:09:25.775Z,8.40
2019-03-23T00:11:54.498Z,8.40
2019-03-23T00:14:23.146Z,8.30
2019-03-23T00:16:51.904Z,8.30
2019-03-23T00:19:20.556Z,8.20
2019-03-23T00:21:49.311Z,8.20
2019-03-23T00:24:17.916Z,8.10
2019-03-23T00:26:46.555Z,8.10
2019-03-23T00:29:15.329Z,8.20
2019-03-23T00:31:44.031Z,8.20
2019-03-23T00:34:12.717Z,8.30
2019-03-23T00:36:42.025Z,8.30
2019-03-23T00:39:10.729Z,8.40
2019-03-23T00:41:39.468Z,8.50
2019-03-23T00:44:08.320Z,8.50
2019-03-23T00:46:36.997Z,8.60
2019-03-23T00:49:05.751Z,8.60
2019-03-23T00:51:41.820Z,8.70
2019-03-23T00:54:10.564Z,8.70
2019-03-23T00:56:39.243Z,8.80
2019-03-23T00:59:07.831Z,8.80
2019-03-23T01:01:36.609Z,8.90
2019-03-23T01:04:05.366Z,8.90
2019-03-23T01:06:34.120Z,8.90
2019-03-23T01:09:02.919Z,8.90
2019-03-23T01:11:31.648Z,8.90
2019-03-23T01:14:00.353Z,8.90
2019-03-23T01:16:28.998Z,8.90
2019-03-23T01:18:57.683Z,8.90
2019-03-23T01:21:26.565Z,9.00
2019-03-23T01:23:55.183Z,9.20
2019-03-23T01:26:23.785Z,9.30
2019-03-23T01:28:52.432Z,9.40
2019-03-23T01:31:21.068Z,9.40
2019-03-23T01:33:49.732Z,9.40
2019-03-23T01:36:18.423Z,9.40
2019-03-23T01:38:47.066Z,9.30
2019-03-23T01:41:15.735Z,9.20
2019-03-23T01:43:44.443Z,9.20
2019-03-23T01:46:13.086Z,9.10
2019-03-23T01:48:41.751Z,8.90
2019-03-23T01:51:10.532Z,8.90
2019-03-23T01:53:39.168Z,8.80
2019-03-23T01:56:07.795Z,8.80
2019-03-23T01:58:36.576Z,8.70
2019-03-23T02:01:05.440Z,8.70
2019-03-23T02:03:34.129Z,8.70
2019-03-23T02:06:02.805Z,8.60
2019-03-23T02:08:31.478Z,8.60
2019-03-23T02:11:00.091Z,8.60
2019-03-23T02:13:28.755Z,8.60
2019-03-23T02:15:57.361Z,8.60
2019-03-23T02:18:26.013Z,8.80
2019-03-23T02:20:54.716Z,8.90
2019-03-23T02:23:23.295Z,9.00
2019-03-23T02:25:52.056Z,9.00
2019-03-23T02:28:20.762Z,9.20
2019-03-23T02:30:49.487Z,9.30
2019-03-23T02:33:18.093Z,9.30
2019-03-23T02:35:46.822Z,9.40
2019-03-23T02:38:15.447Z,9.40
2019-03-23T02:40:44.158Z,9.40
2019-03-23T02:43:12.784Z,9.40
2019-03-23T02:45:41.455Z,9.30
2019-03-23T02:48:10.082Z,9.30
2019-03-23T02:50:38.765Z,9.30
2019-03-23T02:53:07.372Z,9.20
2019-03-23T02:55:36.021Z,9.10
2019-03-23T02:58:04.670Z,9.10
2019-03-23T03:00:33.584Z,9.10
2019-03-23T03:03:02.227Z,9.00
2019-03-23T03:05:30.986Z,8.90
2019-03-23T03:07:59.774Z,8.90
2019-03-23T03:10:43.731Z,8.80
2019-03-23T03:13:12.512Z,8.70
2019-03-23T03:15:41.171Z,8.70
2019-03-23T03:18:10.049Z,8.60
2019-03-23T03:20:38.810Z,8.60
2019-03-23T03:23:07.565Z,8.50
2019-03-23T03:25:36.464Z,8.40
2019-03-23T03:28:05.411Z,8.30
2019-03-23T03:30:34.105Z,8.20
2019-03-23T03:33:02.898Z,8.10
2019-03-23T03:35:31.625Z,8.10
2019-03-23T03:38:00.319Z,8.10
2019-03-23T03:40:29.096Z,8.00
2019-03-23T03:42:57.782Z,8.00
2019-03-23T03:45:27.943Z,8.00
2019-03-23T03:47:56.803Z,8.00
2019-03-23T03:50:25.457Z,8.00
2019-03-23T03:52:54.315Z,7.90
2019-03-23T03:55:23.051Z,7.90
2019-03-23T03:57:51.750Z,7.90
2019-03-23T04:00:20.527Z,7.90
2019-03-23T04:02:49.217Z,7.80
2019-03-23T04:05:17.922Z,7.90
2019-03-23T04:07:47.035Z,7.80
2019-03-23T04:10:15.916Z,7.80
2019-03-23T04:12:44.665Z,7.70
2019-03-23T04:15:13.751Z,7.60
2019-03-23T04:17:42.482Z,7.60
2019-03-23T04:20:11.726Z,7.50
2019-03-23T04:22:40.453Z,7.40
2019-03-23T04:25:10.561Z,7.40
2019-03-23T04:27:39.258Z,7.30
2019-03-23T04:30:10.189Z,7.20
2019-03-23T04:32:38.887Z,7.10
2019-03-23T04:35:08.175Z,7.00
2019-03-23T04:37:36.900Z,7.00
2019-03-23T04:40:10.672Z,6.90
2019-03-23T04:42:39.452Z,6.90
2019-03-23T04:45:10.503Z,6.80
2019-03-23T04:47:39.277Z,6.90
2019-03-23T04:50:10.754Z,6.80
2019-03-23T04:52:39.503Z,6.90
2019-03-23T04:55:12.958Z,6.90
2019-03-23T04:57:41.778Z,6.90
2019-03-23T05:00:16.215Z,6.90
2019-03-23T05:02:44.991Z,6.90
2019-03-23T05:05:13.898Z,6.90
2019-03-23T05:07:42.660Z,6.80
2019-03-23T05:10:12.342Z,6.80
2019-03-23T05:12:41.152Z,6.80
2019-03-23T05:15:09.940Z,6.80
2019-03-23T05:17:38.714Z,6.70
2019-03-23T05:20:07.283Z,6.70
2019-03-23T05:22:35.170Z,6.70
2019-03-23T05:25:03.237Z,6.70
2019-03-23T05:27:31.171Z,6.70
2019-03-23T05:29:59.036Z,6.80
2019-03-23T05:32:26.949Z,6.80
2019-03-23T05:34:54.816Z,6.70
2019-03-23T05:37:22.660Z,6.70
2019-03-23T05:39:50.593Z,6.80
2019-03-23T05:42:18.438Z,6.80
2019-03-23T05:44:46.361Z,6.70
2019-03-23T05:47:14.286Z,6.70
2019-03-23T05:49:42.140Z,6.70
2019-03-23T05:52:10.014Z,6.70
2019-03-23T05:54:37.967Z,6.70
2019-03-23T05:57:05.773Z,6.80
2019-03-23T05:59:33.611Z,6.80
2019-03-23T06:02:01.453Z,6.80
2019-03-23T06:04:29.303Z,6.90
2019-03-23T06:06:57.211Z,6.80
2019-03-23T06:09:25.016Z,6.90
2019-03-23T06:11:52.869Z,6.90
2019-03-23T06:14:20.706Z,6.90
2019-03-23T06:16:48.556Z,7.00
2019-03-23T06:19:16.389Z,7.00
2019-03-23T06:21:44.287Z,7.00
2019-03-23T06:24:12.193Z,7.00
2019-03-23T06:26:40.118Z,7.00
2019-03-23T06:29:08.013Z,7.00
2019-03-23T06:31:35.958Z,7.10
2019-03-23T06:34:03.831Z,7.10
2019-03-23T06:36:31.648Z,7.10
2019-03-23T06:39:05.324Z,7.10
2019-03-23T06:41:29.001Z,7.20
2019-03-23T06:43:56.879Z,7.20
2019-03-23T06:46:24.995Z,7.10
2019-03-23T06:48:52.785Z,7.10
2019-03-23T06:51:20.601Z,7.20
2019-03-23T06:53:48.529Z,7.20
2019-03-23T06:56:16.354Z,7.20
2019-03-23T06:58:44.175Z,7.20
2019-03-23T07:01:12.213Z,7.30
2019-03-23T07:03:40.068Z,7.30
2019-03-23T07:06:07.919Z,7.30
2019-03-23T07:08:35.872Z,7.40
2019-03-23T07:11:03.836Z,7.50
2019-03-23T07:13:31.680Z,7.40
2019-03-23T07:15:59.631Z,7.40
2019-03-23T07:18:27.489Z,7.50
2019-03-23T07:20:55.388Z,7.40
2019-03-23T07:23:23.339Z,7.50
2019-03-23T07:25:51.255Z,7.50
2019-03-23T07:28:19.211Z,7.50
2019-03-23T07:30:47.035Z,7.50
2019-03-23T07:33:14.948Z,7.50
2019-03-23T07:35:42.752Z,7.50
2019-03-23T07:38:10.660Z,7.60
2019-03-23T07:40:38.559Z,7.50
2019-03-23T07:43:06.481Z,7.50
2019-03-23T07:45:34.381Z,7.50
2019-03-23T07:48:02.708Z,7.50
2019-03-23T07:50:30.708Z,7.50
2019-03-23T07:52:58.497Z,7.40
2019-03-23T07:55:26.368Z,7.40
2019-03-23T07:57:54.263Z,7.30
2019-03-23T08:00:22.352Z,7.30
2019-03-23T08:02:50.164Z,7.30
2019-03-23T08:05:18.202Z,7.30
2019-03-23T08:07:46.119Z,7.20
2019-03-23T08:10:15.452Z,7.10
2019-03-23T08:12:43.311Z,7.00
2019-03-23T08:15:11.265Z,6.90
2019-03-23T08:17:39.191Z,6.80
2019-03-23T08:20:07.289Z,6.80
2019-03-23T08:22:35.171Z,6.80
2019-03-23T08:25:03.485Z,6.90
2019-03-23T08:27:31.364Z,6.80
2019-03-23T08:29:59.281Z,6.90
2019-03-23T08:32:27.157Z,6.90
2019-03-23T08:34:55.064Z,6.80
2019-03-23T08:37:22.919Z,6.90
2019-03-23T08:39:50.788Z,6.90
2019-03-23T08:42:21.951Z,6.90
2019-03-23T08:44:49.789Z,7.00
2019-03-23T08:47:17.641Z,7.10
2019-03-23T08:49:45.600Z,7.20
2019-03-23T08:52:13.729Z,7.30
2019-03-23T08:54:41.599Z,7.40
2019-03-23T08:57:09.421Z,7.50
2019-03-23T08:59:37.380Z,7.70
2019-03-23T09:02:05.287Z,7.80
2019-03-23T09:04:33.181Z,7.80
2019-03-23T09:07:01.193Z,7.80
2019-03-23T09:09:29.118Z,8.00
2019-03-23T09:11:56.973Z,8.10
2019-03-23T09:14:24.836Z,8.10
2019-03-23T09:16:52.665Z,8.00
2019-03-23T09:19:20.622Z,8.10
2019-03-23T09:21:48.505Z,8.30
2019-03-23T09:24:16.367Z,8.30
2019-03-23T09:26:44.201Z,8.40
2019-03-23T09:29:12.086Z,8.50
2019-03-23T09:31:39.943Z,8.40
2019-03-23T09:34:07.883Z,8.40
2019-03-23T09:36:35.807Z,8.40
2019-03-23T09:39:04.800Z,8.40
2019-03-23T09:41:32.681Z,8.50
2019-03-23T09:44:00.611Z,8.50
2019-03-23T09:46:28.475Z,8.60
2019-03-23T09:48:56.384Z,8.60
2019-03-23T09:51:24.268Z,8.50
2019-03-23T09:53:52.112Z,8.60
2019-03-23T09:56:20.010Z,8.70
2019-03-23T09:58:47.917Z,8.90
2019-03-23T10:01:15.867Z,9.00
2019-03-23T10:03:43.782Z,9.00
2019-03-23T10:06:11.722Z,9.10
2019-03-23T10:08:39.640Z,9.10
2019-03-23T10:11:07.684Z,9.10
2019-03-23T10:13:35.532Z,9.00
2019-03-23T10:16:03.330Z,9.10
2019-03-23T10:18:31.211Z,9.30
2019-03-23T10:20:59.079Z,9.50
2019-03-23T10:23:26.870Z,9.60
2019-03-23T10:25:54.696Z,9.60
2019-03-23T10:28:22.582Z,9.70
2019-03-23T10:30:50.532Z,9.60
2019-03-23T10:33:18.613Z,9.70
2019-03-23T10:35:46.384Z,9.50
2019-03-23T10:38:14.243Z,9.60
2019-03-23T10:40:43.017Z,9.70
2019-03-23T10:43:10.955Z,9.80
2019-03-23T10:45:44.142Z,9.90
2019-03-23T10:48:08.540Z,10.00
2019-03-23T10:50:36.419Z,10.20
2019-03-23T10:53:04.264Z,10.30
2019-03-23T10:55:32.380Z,10.50
2019-03-23T10:58:00.252Z,10.70
2019-03-23T11:00:28.240Z,10.80
2019-03-23T11:02:56.124Z,10.80
2019-03-23T11:05:24.000Z,11.00
2019-03-23T11:07:51.948Z,11.10
2019-03-23T11:10:20.220Z,11.20
2019-03-23T11:12:48.122Z,11.30
2019-03-23T11:15:16.066Z,11.20
2019-03-23T11:17:43.978Z,11.40
2019-03-23T11:20:12.620Z,11.30
2019-03-23T11:22:40.487Z,11.40
2019-03-23T11:25:08.660Z,11.50
2019-03-23T11:27:36.689Z,11.50
2019-03-23T11:30:08.544Z,11.50
2019-03-23T11:32:36.643Z,11.50
2019-03-23T11:35:07.962Z,11.30
2019-03-23T11:37:35.644Z,11.30
2019-03-23T11:40:04.847Z,11.40
2019-03-23T11:42:32.760Z,11.40
2019-03-23T11:45:00.609Z,11.50
2019-03-23T11:47:28.530Z,11.40
2019-03-23T11:49:56.333Z,11.50
2019-03-23T11:52:24.172Z,12.00
2019-03-23T11:54:52.205Z,12.30
2019-03-23T11:57:20.140Z,12.40
2019-03-23T11:59:48.006Z,12.60
2019-03-23T12:02:15.951Z,12.90
2019-03-23T12:04:43.813Z,13.30
2019-03-23T12:07:11.780Z,13.60
2019-03-23T12:09:39.640Z,13.10
2019-03-23T12:12:07.561Z,13.10
2019-03-23T12:14:35.447Z,13.40
2019-03-23T12:17:03.363Z,13.90
2019-03-23T12:19:31.229Z,14.00
2019-03-23T12:21:59.184Z,14.10
2019-03-23T12:24:27.199Z,14.00
2019-03-23T12:26:55.069Z,14.00
2019-03-23T12:29:22.973Z,14.20
2019-03-23T12:31:50.838Z,13.80
2019-03-23T12:34:18.693Z,13.40
2019-03-23T12:36:46.524Z,13.50
2019-03-23T12:39:14.473Z,13.40
2019-03-23T12:41:42.304Z,13.20
2019-03-23T12:44:10.140Z,13.00
2019-03-23T12:46:47.730Z,13.30
2019-03-23T12:49:07.589Z,13.50
2019-03-23T12:51:35.434Z,13.50
2019-03-23T12:54:03.336Z,13.40
2019-03-23T12:56:31.159Z,13.50
2019-03-23T12:58:59.041Z,13.60
2019-03-23T13:01:26.931Z,13.50
2019-03-23T13:03:54.851Z,13.40
2019-03-23T13:06:22.717Z,13.60
2019-03-23T13:08:50.521Z,13.50
2019-03-23T13:11:23.238Z,13.50
2019-03-23T13:13:47.986Z,13.50
2019-03-23T13:16:15.833Z,13.60
2019-03-23T13:18:43.652Z,13.60
2019-03-23T13:21:11.700Z,13.70
2019-03-23T13:23:39.584Z,13.70
2019-03-23T13:26:07.409Z,13.80
2019-03-23T13:28:35.340Z,13.80
2019-03-23T13:31:03.245Z,13.80
2019-03-23T13:33:31.150Z,13.90
2019-03-23T13:35:59.000Z,13.90
2019-03-23T13:38:26.885Z,13.80
2019-03-23T13:40:54.783Z,13.80
2019-03-23T13:43:22.738Z,13.80
2019-03-23T13:45:50.650Z,13.80
2019-03-23T13:48:18.478Z,13.60
2019-03-23T13:50:46.417Z,13.50
2019-03-23T13:53:14.268Z,13.20
2019-03-23T13:55:42.248Z,13.10
2019-03-23T13:58:13.751Z,13.20
2019-03-23T14:00:41.876Z,13.10
2019-03-23T14:03:09.889Z,13.00
2019-03-23T14:05:37.776Z,13.00
2019-03-23T14:08:05.703Z,13.00
2019-03-23T14:10:33.665Z,12.80
2019-03-23T14:13:01.568Z,12.80
2019-03-23T14:15:30.459Z,12.90
2019-03-23T14:17:58.379Z,12.80
2019-03-23T14:20:26.220Z,12.70
2019-03-23T14:23:02.573Z,12.70
2019-03-23T14:25:26.323Z,12.70
2019-03-23T14:27:54.183Z,12.60
2019-03-23T14:30:22.132Z,12.50
2019-03-23T14:32:50.017Z,12.40
2019-03-23T14:35:17.812Z,12.40
2019-03-23T14:37:45.752Z,12.30
2019-03-23T14:40:14.129Z,12.30
2019-03-23T14:42:42.088Z,12.30
2019-03-23T14:45:10.110Z,12.30
2019-03-23T14:47:38.027Z,12.20
2019-03-23T14:50:06.226Z,12.10
2019-03-23T14:52:34.320Z,12.10
2019-03-23T14:55:02.233Z,12.10
2019-03-23T14:57:30.183Z,12.20
2019-03-23T14:59:58.317Z,12.10
2019-03-23T15:02:26.245Z,12.20
2019-03-23T15:04:54.296Z,12.20
2019-03-23T15:07:22.133Z,12.10
2019-03-23T15:09:50.124Z,12.00
2019-03-23T15:12:18.042Z,12.00
2019-03-23T15:14:45.912Z,12.00
2019-03-23T15:17:13.799Z,12.10
2019-03-23T15:19:41.719Z,12.00
2019-03-23T15:22:09.667Z,12.00
2019-03-23T15:24:37.497Z,11.90
2019-03-23T15:27:05.509Z,11.90
2019-03-23T15:29:33.459Z,11.90
2019-03-23T15:32:01.358Z,11.80
2019-03-23T15:34:30.627Z,11.80
2019-03-23T15:36:58.578Z,11.80
2019-03-23T15:39:26.427Z,11.70
2019-03-23T15:41:54.288Z,11.70
2019-03-23T15:44:22.428Z,11.60
2019-03-23T15:46:50.819Z,11.60
2019-03-23T15:49:18.752Z,11.60
2019-03-23T15:51:46.627Z,11.50
2019-03-23T15:54:14.536Z,11.50
2019-03-23T15:56:42.533Z,11.40
2019-03-23T15:59:10.722Z,11.40
2019-03-23T16:01:38.601Z,11.40
2019-03-23T16:04:06.564Z,11.30
2019-03-23T16:06:34.436Z,11.30
2019-03-23T16:09:04.664Z,11.30
2019-03-23T16:11:33.182Z,11.30
2019-03-23T16:14:03.399Z,11.20
2019-03-23T16:16:31.602Z,11.20
2019-03-23T16:19:02.552Z,11.10
2019-03-23T16:21:30.899Z,11.10
2019-03-23T16:23:59.198Z,11.00
2019-03-23T16:26:27.482Z,10.90
2019-03-23T16:28:56.038Z,10.80
2019-03-23T16:31:24.432Z,10.80
2019-03-23T16:33:52.983Z,10.80
2019-03-23T16:36:21.347Z,10.70
2019-03-23T16:38:49.643Z,10.70
2019-03-23T16:41:17.776Z,10.60
2019-03-23T16:43:45.881Z,10.60
2019-03-23T16:46:14.053Z,10.60
2019-03-23T16:48:42.220Z,10.30
2019-03-23T16:51:10.397Z,10.60
2019-03-23T16:53:38.460Z,10.50
2019-03-23T16:56:06.524Z,10.50
2019-03-23T16:58:34.788Z,10.50
2019-03-23T17:01:02.884Z,11.00
2019-03-23T17:03:31.605Z,10.50
2019-03-23T17:05:59.672Z,10.50
2019-03-23T17:08:27.578Z,10.40
2019-03-23T17:10:55.541Z,10.40
2019-03-23T17:13:23.458Z,10.40
2019-03-23T17:15:51.366Z,10.30
2019-03-23T17:18:19.239Z,10.20
2019-03-23T17:20:47.243Z,10.00
2019-03-23T17:23:15.123Z,9.90
2019-03-23T17:25:43.151Z,9.80
2019-03-23T17:28:11.003Z,9.80
2019-03-23T17:30:38.826Z,9.70
2019-03-23T17:33:08.814Z,9.70
2019-03-23T17:35:36.295Z,9.70
2019-03-23T17:38:04.212Z,9.70
2019-03-23T17:40:32.147Z,9.70
2019-03-23T17:43:05.931Z,9.70
2019-03-23T17:45:29.553Z,9.60
2019-03-23T17:47:59.076Z,9.70
2019-03-23T17:50:26.919Z,9.60
2019-03-23T17:52:54.895Z,9.60
2019-03-23T17:55:22.795Z,9.60
2019-03-23T17:57:50.729Z,9.60
2019-03-23T18:00:18.708Z,9.60
2019-03-23T18:02:46.624Z,9.60
2019-03-23T18:05:14.577Z,9.50
2019-03-23T18:07:42.516Z,9.50
2019-03-23T18:10:10.407Z,9.50
2019-03-23T18:12:38.315Z,9.50
2019-03-23T18:15:07.646Z,9.50
2019-03-23T18:17:35.554Z,9.40
2019-03-23T18:20:04.285Z,9.40
2019-03-23T18:22:32.189Z,9.40
2019-03-23T18:25:00.050Z,9.40
2019-03-23T18:27:27.875Z,9.30
2019-03-23T18:29:55.732Z,9.30
2019-03-23T18:32:23.662Z,9.30
2019-03-23T18:34:51.597Z,9.20
2019-03-23T18:37:19.429Z,9.20
2019-03-23T18:39:47.412Z,9.20
2019-03-23T18:42:15.278Z,9.20
2019-03-23T18:44:43.213Z,9.20
2019-03-23T18:47:11.062Z,9.20
2019-03-23T18:49:39.009Z,9.20
2019-03-23T18:52:06.876Z,9.10
2019-03-23T18:54:34.785Z,9.10
2019-03-23T18:57:02.747Z,9.10
2019-03-23T18:59:30.673Z,9.00
2019-03-23T19:01:58.464Z,9.00
2019-03-23T19:04:26.428Z,9.00
2019-03-23T19:06:54.281Z,9.00
2019-03-23T19:09:22.221Z,9.00
2019-03-23T19:11:50.105Z,8.90
2019-03-23T19:14:18.022Z,8.90
2019-03-23T19:16:46.039Z,8.80
2019-03-23T19:19:13.856Z,8.80
2019-03-23T19:21:41.725Z,8.70
2019-03-23T19:24:09.562Z,8.70
2019-03-23T19:26:37.439Z,8.70
2019-03-23T19:29:05.272Z,8.70
2019-03-23T19:31:33.103Z,8.60
2019-03-23T19:34:00.983Z,8.60
2019-03-23T19:36:28.915Z,8.50
2019-03-23T19:38:56.807Z,8.50
2019-03-23T19:41:24.628Z,8.40
2019-03-23T19:43:52.440Z,8.40
2019-03-23T19:46:20.314Z,8.30
2019-03-23T19:48:48.199Z,8.20
2019-03-23T19:51:16.084Z,8.20
2019-03-23T19:53:43.941Z,8.10
2019-03-23T19:56:11.941Z,8.10
2019-03-23T19:58:39.847Z,8.00
2019-03-23T20:01:07.792Z,8.00
2019-03-23T20:03:35.733Z,8.00
2019-03-23T20:06:03.616Z,7.90
2019-03-23T20:08:31.503Z,7.90
2019-03-23T20:10:59.368Z,7.80
2019-03-23T20:13:27.244Z,7.80
2019-03-23T20:15:55.114Z,7.70
2019-03-23T20:18:23.032Z,7.70
2019-03-23T20:20:50.886Z,7.60
2019-03-23T20:23:18.822Z,7.50
2019-03-23T20:25:46.680Z,7.40
2019-03-23T20:28:14.665Z,7.40
2019-03-23T20:30:42.676Z,7.30
2019-03-23T20:33:19.096Z,7.30
2019-03-23T20:35:40.139Z,7.20
2019-03-23T20:38:08.010Z,7.10
2019-03-23T20:40:35.843Z,7.10
2019-03-23T20:43:03.756Z,7.10
2019-03-23T20:45:31.753Z,7.00
2019-03-23T20:47:59.850Z,7.00
2019-03-23T20:50:27.856Z,6.90
2019-03-23T20:52:55.758Z,6.90
2019-03-23T20:55:24.364Z,6.80
2019-03-23T20:57:52.565Z,6.80
2019-03-23T21:00:20.465Z,6.80
2019-03-23T21:02:48.420Z,6.80
2019-03-23T21:05:16.282Z,6.80
2019-03-23T21:07:44.199Z,6.80
2019-03-23T21:10:12.109Z,6.70
2019-03-23T21:12:40.045Z,6.60
2019-03-23T21:15:07.972Z,6.60
2019-03-23T21:17:35.841Z,6.50
2019-03-23T21:20:04.602Z,6.50
2019-03-23T21:22:32.491Z,6.40
2019-03-23T21:25:00.358Z,6.40
2019-03-23T21:27:28.197Z,6.40
2019-03-23T21:29:56.095Z,6.40
2019-03-23T21:32:24.017Z,6.30
2019-03-23T21:34:51.965Z,6.30
2019-03-23T21:37:19.833Z,6.20
2019-03-23T21:39:47.762Z,6.20
2019-03-23T21:42:15.655Z,6.10
2019-03-23T21:44:43.548Z,6.00
2019-03-23T21:47:11.453Z,5.90
2019-03-23T21:49:39.385Z,5.80
2019-03-23T21:52:07.276Z,5.80
2019-03-23T21:54:35.114Z,5.80
2019-03-23T21:57:03.016Z,5.80
2019-03-23T21:59:30.931Z,5.80
2019-03-23T22:01:58.806Z,5.80
2019-03-23T22:04:26.655Z,5.70
2019-03-23T22:06:54.589Z,5.70
2019-03-23T22:09:22.423Z,5.60
2019-03-23T22:11:50.288Z,5.60
2019-03-23T22:14:18.140Z,5.60
2019-03-23T22:16:46.104Z,5.50
2019-03-23T22:19:13.951Z,5.40
2019-03-23T22:21:41.776Z,5.40
2019-03-23T22:24:09.694Z,5.40
2019-03-23T22:26:37.561Z,5.40
2019-03-23T22:29:05.365Z,5.30
2019-03-23T22:31:33.229Z,5.40
2019-03-23T22:34:01.096Z,5.30
2019-03-23T22:36:28.973Z,5.30
2019-03-23T22:38:56.842Z,5.20
2019-03-23T22:41:24.636Z,5.10
2019-03-23T22:43:52.518Z,5.00
2019-03-23T22:46:20.397Z,5.00
2019-03-23T22:48:48.341Z,5.00
2019-03-23T22:51:16.279Z,4.90
2019-03-23T22:53:44.104Z,4.90
2019-03-23T22:56:12.011Z,4.80
2019-03-23T22:58:39.907Z,4.80
2019-03-23T23:01:07.863Z,4.80
2019-03-23T23:03:35.772Z,4.70
2019-03-23T23:06:03.705Z,4.70
2019-03-23T23:08:31.559Z,4.60
2019-03-23T23:10:59.411Z,4.60
2019-03-23T23:13:27.235Z,4.50
2019-03-23T23:15:55.079Z,4.40
2019-03-23T23:18:23.179Z,4.40
2019-03-23T23:20:51.082Z,4.30
2019-03-23T23:23:19.009Z,4.20
2019-03-23T23:25:46.918Z,4.10
2019-03-23T23:28:14.821Z,4.10
2019-03-23T23:30:42.750Z,4.00
2019-03-23T23:33:10.571Z,4.00
2019-03-23T23:35:38.487Z,4.00
2019-03-23T23:38:06.378Z,3.90
2019-03-23T23:40:34.264Z,3.90
2019-03-23T23:43:02.083Z,3.90
2019-03-23T23:45:30.089Z,3.80
2019-03-23T23:47:57.980Z,3.80
2019-03-23T23:50:25.785Z,3.80
2019-03-23T23:52:53.633Z,3.80
2019-03-23T23:55:21.560Z,3.80
2019-03-23T23:57:49.516Z,3.80
